Mareeba, Queensland

8:15 PM AEST on September 22, 2014 (GMT +1000)
Mareeba, (Cairns) | Change Station
CLOSE
Current Station
Personal Weather Station
Location: Paddy's Green, Queensland
Elevation: 1739 ft
Nearby Weather Stations

Elev 1739 ft 17.02 °S, 145.34 °E | Updated 2 seconds ago

Overcast
Overcast
66.9 °F
Feels Like 66.9 °F
N
8.1
Wind Variable Wind from ENE
Gusts 8.1 mph

Today
High -- | Low -- °F
--% Chance of Precip.
Yesterday
High -- | Low -- °F
Precip. -- in
6:08 AM 6:14 PM
Waning Crescent, 3% visible
Pressure 30.01 in
Visibility 6.2 miles
Clouds Scattered Clouds 2400 ft
Mostly Cloudy 4600 ft
Overcast 5100 ft
Dew Point 63 °F
Humidity 86%
Rainfall 0.00 in
Snow Depth Not available.
UV 0.0 out of 12
Pollen Not available.
Air Quality Not available.
Flu Activity Not available.
METAR YBCS 221000Z AUTO 15007KT 9999 // SCT024 BKN046 OVC051 24/19 Q1016

More Conditions Fewer Conditions

Pressure 30.01 in
Visibility 6.2 miles
Clouds Scattered Clouds 2400 ft
Mostly Cloudy 4600 ft
Overcast 5100 ft
Dew Point 63 °F
Humidity 86%
Rainfall 0.00 in
Snow Depth Not available.
UV 0.0 out of 12
Pollen Not available.
Air Quality Not available.
Flu Activity Not available.
METAR YBCS 221000Z AUTO 15007KT 9999 // SCT024 BKN046 OVC051 24/19 Q1016

More Conditions Fewer Conditions

10-Day Weather Forecast

Almanac

Astronomy

Sep. 22, 2014 Rise Set
Actual Time 6:08 AM AEST 6:14 PM AEST
Civil Twilight 5:46 AM AEST 6:35 PM AEST
Nautical Twilight 5:21 AM AEST 7:00 PM AEST
Astronomical Twilight 4:56 AM AEST 7:26 PM AEST
Moon 4:33 AM AEST 4:37 PM AEST
Length of Visible Light 12h 49m
Length of Day
12h 05m
Tomorrow will be 0m 57s longer.
Waning Crescent, 3% of the Moon is Illuminated
Today
Waning Crescent
Sep 24
New
Oct 1
First Quarter
Oct 8
Full
Oct 15
Last Quarter

Yesterday's Extremes

Country Highs Country Lows

Community

WunderPhotos

Upload Photos

1,755,404 photos uploaded!

Nearby

Snow Depth

Not available.

Earthquake Activity

City Distance Mag. Time & Date
No recent earthquake activity has been reported nearby.
Minimum magnitude displayed is 2.5.

Coastal Water Temperatures

Place Temperature
No Stations Reporting

Nearby Weather Stations